sensor_id;sensor_type;location;lat;lon;timestamp;temperature;humidity
37242;DHT22;23135;51.078;12.108;2022-10-16T00:00:44;15.20;99.90
37242;DHT22;23135;51.078;12.108;2022-10-16T00:03:11;15.20;99.90
37242;DHT22;23135;51.078;12.108;2022-10-16T00:05:42;15.20;99.90
37242;DHT22;23135;51.078;12.108;2022-10-16T00:08:10;15.20;99.90
37242;DHT22;23135;51.078;12.108;2022-10-16T00:10:36;15.30;99.90
37242;DHT22;23135;51.078;12.108;2022-10-16T00:13:03;15.20;99.90
37242;DHT22;23135;51.078;12.108;2022-10-16T00:15:28;15.20;99.90
37242;DHT22;23135;51.078;12.108;2022-10-16T00:17:54;15.20;99.90
37242;DHT22;23135;51.078;12.108;2022-10-16T00:20:20;15.20;99.90
37242;DHT22;23135;51.078;12.108;2022-10-16T00:22:45;15.30;99.90
37242;DHT22;23135;51.078;12.108;2022-10-16T00:25:11;15.30;99.90
37242;DHT22;23135;51.078;12.108;2022-10-16T00:27:37;15.20;99.90
37242;DHT22;23135;51.078;12.108;2022-10-16T00:30:03;15.20;99.90
37242;DHT22;23135;51.078;12.108;2022-10-16T00:32:28;15.20;99.90
37242;DHT22;23135;51.078;12.108;2022-10-16T00:34:54;15.10;99.90
37242;DHT22;23135;51.078;12.108;2022-10-16T00:37:20;15.10;99.90
37242;DHT22;23135;51.078;12.108;2022-10-16T00:39:46;15.00;99.90
37242;DHT22;23135;51.078;12.108;2022-10-16T00:42:16;15.00;99.90
37242;DHT22;23135;51.078;12.108;2022-10-16T00:44:52;15.00;99.90
37242;DHT22;23135;51.078;12.108;2022-10-16T00:47:27;14.90;99.90
37242;DHT22;23135;51.078;12.108;2022-10-16T00:50:22;14.90;99.90
37242;DHT22;23135;51.078;12.108;2022-10-16T00:52:46;14.90;99.90
37242;DHT22;23135;51.078;12.108;2022-10-16T00:55:13;15.00;99.90
37242;DHT22;23135;51.078;12.108;2022-10-16T00:57:39;15.00;99.90
37242;DHT22;23135;51.078;12.108;2022-10-16T01:00:07;15.00;99.90
37242;DHT22;23135;51.078;12.108;2022-10-16T01:02:33;15.00;99.90
37242;DHT22;23135;51.078;12.108;2022-10-16T01:04:59;14.80;99.90
37242;DHT22;23135;51.078;12.108;2022-10-16T01:08:06;14.70;99.90
37242;DHT22;23135;51.078;12.108;2022-10-16T01:10:45;14.60;99.90
37242;DHT22;23135;51.078;12.108;2022-10-16T01:13:22;14.60;99.90
37242;DHT22;23135;51.078;12.108;2022-10-16T01:15:56;14.50;99.90
37242;DHT22;23135;51.078;12.108;2022-10-16T01:18:45;14.50;99.90
37242;DHT22;23135;51.078;12.108;2022-10-16T01:21:18;14.50;99.90
37242;DHT22;23135;51.078;12.108;2022-10-16T01:23:57;14.40;99.90
37242;DHT22;23135;51.078;12.108;2022-10-16T01:29:18;14.30;99.90
37242;DHT22;23135;51.078;12.108;2022-10-16T01:31:49;14.30;99.90
37242;DHT22;23135;51.078;12.108;2022-10-16T01:34:19;14.30;99.90
37242;DHT22;23135;51.078;12.108;2022-10-16T01:36:53;14.30;99.90
37242;DHT22;23135;51.078;12.108;2022-10-16T01:39:24;14.20;99.90
37242;DHT22;23135;51.078;12.108;2022-10-16T01:42:11;14.20;99.90
37242;DHT22;23135;51.078;12.108;2022-10-16T01:44:39;14.20;99.90
37242;DHT22;23135;51.078;12.108;2022-10-16T01:47:09;14.20;99.90
37242;DHT22;23135;51.078;12.108;2022-10-16T01:49:36;14.20;99.90
37242;DHT22;23135;51.078;12.108;2022-10-16T01:52:06;14.30;99.90
37242;DHT22;23135;51.078;12.108;2022-10-16T01:54:35;14.20;99.90
37242;DHT22;23135;51.078;12.108;2022-10-16T01:57:04;14.30;99.90
37242;DHT22;23135;51.078;12.108;2022-10-16T01:59:33;14.30;99.90
37242;DHT22;23135;51.078;12.108;2022-10-16T02:02:05;14.30;99.90
37242;DHT22;23135;51.078;12.108;2022-10-16T02:04:47;14.30;99.90
37242;DHT22;23135;51.078;12.108;2022-10-16T02:07:14;14.40;99.90
37242;DHT22;23135;51.078;12.108;2022-10-16T02:09:40;14.40;99.90
37242;DHT22;23135;51.078;12.108;2022-10-16T02:12:22;14.40;99.90
37242;DHT22;23135;51.078;12.108;2022-10-16T02:14:49;14.40;99.90
37242;DHT22;23135;51.078;12.108;2022-10-16T02:17:19;14.40;99.90
37242;DHT22;23135;51.078;12.108;2022-10-16T02:19:46;14.40;99.90
37242;DHT22;23135;51.078;12.108;2022-10-16T02:25:31;14.40;99.90
37242;DHT22;23135;51.078;12.108;2022-10-16T02:28:07;14.50;99.90
37242;DHT22;23135;51.078;12.108;2022-10-16T02:30:37;14.50;99.90
37242;DHT22;23135;51.078;12.108;2022-10-16T02:33:07;14.60;99.90
37242;DHT22;23135;51.078;12.108;2022-10-16T02:35:35;14.60;99.90
37242;DHT22;23135;51.078;12.108;2022-10-16T02:38:02;14.60;99.90
37242;DHT22;23135;51.078;12.108;2022-10-16T02:40:28;14.60;99.90
37242;DHT22;23135;51.078;12.108;2022-10-16T02:42:55;14.60;99.90
37242;DHT22;23135;51.078;12.108;2022-10-16T02:45:21;14.60;99.90
37242;DHT22;23135;51.078;12.108;2022-10-16T02:47:47;14.50;99.90
37242;DHT22;23135;51.078;12.108;2022-10-16T02:50:13;14.50;99.90
37242;DHT22;23135;51.078;12.108;2022-10-16T02:52:39;14.40;99.90
37242;DHT22;23135;51.078;12.108;2022-10-16T02:55:05;14.30;99.90
37242;DHT22;23135;51.078;12.108;2022-10-16T02:57:30;14.30;99.90
37242;DHT22;23135;51.078;12.108;2022-10-16T02:59:57;14.40;99.90
37242;DHT22;23135;51.078;12.108;2022-10-16T03:02:22;14.50;99.90
37242;DHT22;23135;51.078;12.108;2022-10-16T03:04:48;14.50;99.90
37242;DHT22;23135;51.078;12.108;2022-10-16T03:07:14;14.60;99.90
37242;DHT22;23135;51.078;12.108;2022-10-16T03:09:39;14.70;99.90
37242;DHT22;23135;51.078;12.108;2022-10-16T03:12:05;14.70;99.90
37242;DHT22;23135;51.078;12.108;2022-10-16T03:14:31;14.80;99.90
37242;DHT22;23135;51.078;12.108;2022-10-16T03:16:56;14.90;99.90
37242;DHT22;23135;51.078;12.108;2022-10-16T03:19:22;14.90;99.90
37242;DHT22;23135;51.078;12.108;2022-10-16T03:21:48;15.00;99.90
37242;DHT22;23135;51.078;12.108;2022-10-16T03:24:13;15.10;99.90
37242;DHT22;23135;51.078;12.108;2022-10-16T03:26:39;15.10;99.90
37242;DHT22;23135;51.078;12.108;2022-10-16T03:29:05;15.10;99.90
37242;DHT22;23135;51.078;12.108;2022-10-16T03:31:32;15.20;99.90
37242;DHT22;23135;51.078;12.108;2022-10-16T03:33:57;15.20;99.90
37242;DHT22;23135;51.078;12.108;2022-10-16T03:36:23;15.30;99.90
37242;DHT22;23135;51.078;12.108;2022-10-16T03:38:49;15.30;99.90
37242;DHT22;23135;51.078;12.108;2022-10-16T03:41:14;15.30;99.90
37242;DHT22;23135;51.078;12.108;2022-10-16T03:43:40;15.30;99.90
37242;DHT22;23135;51.078;12.108;2022-10-16T03:46:06;15.30;99.90
37242;DHT22;23135;51.078;12.108;2022-10-16T03:48:31;15.20;99.90
37242;DHT22;23135;51.078;12.108;2022-10-16T03:50:57;15.20;99.90
37242;DHT22;23135;51.078;12.108;2022-10-16T03:53:23;15.10;99.90
37242;DHT22;23135;51.078;12.108;2022-10-16T03:55:49;15.10;99.90
37242;DHT22;23135;51.078;12.108;2022-10-16T03:58:14;15.00;99.90
37242;DHT22;23135;51.078;12.108;2022-10-16T04:00:46;15.00;99.90
37242;DHT22;23135;51.078;12.108;2022-10-16T04:03:13;15.00;99.90
37242;DHT22;23135;51.078;12.108;2022-10-16T04:05:39;15.00;99.90
37242;DHT22;23135;51.078;12.108;2022-10-16T04:08:05;14.90;99.90
37242;DHT22;23135;51.078;12.108;2022-10-16T04:10:31;14.90;99.90
37242;DHT22;23135;51.078;12.108;2022-10-16T04:12:56;14.90;99.90
37242;DHT22;23135;51.078;12.108;2022-10-16T04:15:26;14.80;99.90
37242;DHT22;23135;51.078;12.108;2022-10-16T04:17:51;14.70;99.90
37242;DHT22;23135;51.078;12.108;2022-10-16T04:20:18;14.70;99.90
37242;DHT22;23135;51.078;12.108;2022-10-16T04:22:44;14.70;99.90
37242;DHT22;23135;51.078;12.108;2022-10-16T04:25:10;14.60;99.90
37242;DHT22;23135;51.078;12.108;2022-10-16T04:27:37;14.60;99.90
37242;DHT22;23135;51.078;12.108;2022-10-16T04:30:03;14.50;99.90
37242;DHT22;23135;51.078;12.108;2022-10-16T04:32:29;14.50;99.90
37242;DHT22;23135;51.078;12.108;2022-10-16T04:34:55;14.50;99.90
37242;DHT22;23135;51.078;12.108;2022-10-16T04:37:24;14.50;99.90
37242;DHT22;23135;51.078;12.108;2022-10-16T04:39:50;14.50;99.90
37242;DHT22;23135;51.078;12.108;2022-10-16T04:42:16;14.50;99.90
37242;DHT22;23135;51.078;12.108;2022-10-16T04:44:42;14.40;99.90
37242;DHT22;23135;51.078;12.108;2022-10-16T04:47:08;14.40;99.90
37242;DHT22;23135;51.078;12.108;2022-10-16T04:49:33;14.50;99.90
37242;DHT22;23135;51.078;12.108;2022-10-16T04:51:59;14.50;99.90
37242;DHT22;23135;51.078;12.108;2022-10-16T04:54:24;14.60;99.90
37242;DHT22;23135;51.078;12.108;2022-10-16T04:56:50;14.50;99.90
37242;DHT22;23135;51.078;12.108;2022-10-16T04:59:18;14.50;99.90
37242;DHT22;23135;51.078;12.108;2022-10-16T05:01:44;14.50;99.90
37242;DHT22;23135;51.078;12.108;2022-10-16T05:04:09;14.40;99.90
37242;DHT22;23135;51.078;12.108;2022-10-16T05:06:35;14.50;99.90
37242;DHT22;23135;51.078;12.108;2022-10-16T05:09:01;14.50;99.90
37242;DHT22;23135;51.078;12.108;2022-10-16T05:11:27;14.50;99.90
37242;DHT22;23135;51.078;12.108;2022-10-16T05:13:53;14.50;99.90
37242;DHT22;23135;51.078;12.108;2022-10-16T05:16:18;14.50;99.90
37242;DHT22;23135;51.078;12.108;2022-10-16T05:18:44;14.50;99.90
37242;DHT22;23135;51.078;12.108;2022-10-16T05:21:09;14.40;99.90
37242;DHT22;23135;51.078;12.108;2022-10-16T05:23:35;14.50;99.90
37242;DHT22;23135;51.078;12.108;2022-10-16T05:26:01;14.50;99.90
37242;DHT22;23135;51.078;12.108;2022-10-16T05:28:28;14.50;99.90
37242;DHT22;23135;51.078;12.108;2022-10-16T05:30:54;14.50;99.90
37242;DHT22;23135;51.078;12.108;2022-10-16T05:33:22;14.40;99.90
37242;DHT22;23135;51.078;12.108;2022-10-16T05:35:48;14.40;99.90
37242;DHT22;23135;51.078;12.108;2022-10-16T05:38:27;14.40;99.90
37242;DHT22;23135;51.078;12.108;2022-10-16T05:40:53;14.40;99.90
37242;DHT22;23135;51.078;12.108;2022-10-16T05:43:19;14.40;99.90
37242;DHT22;23135;51.078;12.108;2022-10-16T05:45:53;14.50;99.90
37242;DHT22;23135;51.078;12.108;2022-10-16T05:48:19;14.50;99.90
37242;DHT22;23135;51.078;12.108;2022-10-16T05:50:45;14.50;99.90
37242;DHT22;23135;51.078;12.108;2022-10-16T05:53:10;14.50;99.90
37242;DHT22;23135;51.078;12.108;2022-10-16T05:55:36;14.60;99.90
37242;DHT22;23135;51.078;12.108;2022-10-16T05:58:01;14.60;99.90
37242;DHT22;23135;51.078;12.108;2022-10-16T06:00:27;14.60;99.90
37242;DHT22;23135;51.078;12.108;2022-10-16T06:02:53;14.70;99.90
37242;DHT22;23135;51.078;12.108;2022-10-16T06:05:19;14.70;99.90
37242;DHT22;23135;51.078;12.108;2022-10-16T06:07:44;14.70;99.90
37242;DHT22;23135;51.078;12.108;2022-10-16T06:10:10;14.70;99.90
37242;DHT22;23135;51.078;12.108;2022-10-16T06:12:35;14.80;99.90
37242;DHT22;23135;51.078;12.108;2022-10-16T06:15:02;14.90;99.90
37242;DHT22;23135;51.078;12.108;2022-10-16T06:17:28;14.90;99.90
37242;DHT22;23135;51.078;12.108;2022-10-16T06:19:53;15.00;99.90
37242;DHT22;23135;51.078;12.108;2022-10-16T06:22:19;15.10;99.90
37242;DHT22;23135;51.078;12.108;2022-10-16T06:24:45;15.10;99.90
37242;DHT22;23135;51.078;12.108;2022-10-16T06:27:11;15.20;99.90
37242;DHT22;23135;51.078;12.108;2022-10-16T06:29:37;15.20;99.90
37242;DHT22;23135;51.078;12.108;2022-10-16T06:32:03;15.20;99.90
37242;DHT22;23135;51.078;12.108;2022-10-16T06:34:28;15.30;99.90
37242;DHT22;23135;51.078;12.108;2022-10-16T06:36:54;15.40;99.90
37242;DHT22;23135;51.078;12.108;2022-10-16T06:39:20;15.40;99.90
37242;DHT22;23135;51.078;12.108;2022-10-16T06:41:46;15.40;99.90
37242;DHT22;23135;51.078;12.108;2022-10-16T06:44:11;15.40;99.90
37242;DHT22;23135;51.078;12.108;2022-10-16T06:46:37;15.30;99.90
37242;DHT22;23135;51.078;12.108;2022-10-16T06:49:03;15.30;99.90
37242;DHT22;23135;51.078;12.108;2022-10-16T06:51:28;15.30;99.90
37242;DHT22;23135;51.078;12.108;2022-10-16T06:53:55;15.30;99.90
37242;DHT22;23135;51.078;12.108;2022-10-16T06:56:26;15.40;99.90
37242;DHT22;23135;51.078;12.108;2022-10-16T06:58:52;15.40;99.90
37242;DHT22;23135;51.078;12.108;2022-10-16T07:01:20;15.50;99.90
37242;DHT22;23135;51.078;12.108;2022-10-16T07:03:47;15.50;99.90
37242;DHT22;23135;51.078;12.108;2022-10-16T07:06:19;15.70;99.90
37242;DHT22;23135;51.078;12.108;2022-10-16T07:08:46;15.70;99.90
37242;DHT22;23135;51.078;12.108;2022-10-16T07:11:14;15.80;99.90
37242;DHT22;23135;51.078;12.108;2022-10-16T07:13:41;15.80;99.90
37242;DHT22;23135;51.078;12.108;2022-10-16T07:16:12;15.80;99.90
37242;DHT22;23135;51.078;12.108;2022-10-16T07:18:39;15.80;99.90
37242;DHT22;23135;51.078;12.108;2022-10-16T07:21:13;15.80;99.90
37242;DHT22;23135;51.078;12.108;2022-10-16T07:23:39;15.70;99.90
37242;DHT22;23135;51.078;12.108;2022-10-16T07:26:05;15.70;99.90
37242;DHT22;23135;51.078;12.108;2022-10-16T07:28:32;15.70;99.90
37242;DHT22;23135;51.078;12.108;2022-10-16T07:31:03;15.80;99.90
37242;DHT22;23135;51.078;12.108;2022-10-16T07:33:29;15.80;99.90
37242;DHT22;23135;51.078;12.108;2022-10-16T07:35:55;15.90;99.90
37242;DHT22;23135;51.078;12.108;2022-10-16T07:38:21;16.00;99.90
37242;DHT22;23135;51.078;12.108;2022-10-16T07:40:47;16.10;99.90
37242;DHT22;23135;51.078;12.108;2022-10-16T07:43:13;16.20;99.90
37242;DHT22;23135;51.078;12.108;2022-10-16T07:45:47;16.30;99.90
37242;DHT22;23135;51.078;12.108;2022-10-16T07:48:14;16.40;99.90
37242;DHT22;23135;51.078;12.108;2022-10-16T07:50:39;16.50;99.90
37242;DHT22;23135;51.078;12.108;2022-10-16T07:53:05;16.60;99.90
37242;DHT22;23135;51.078;12.108;2022-10-16T07:55:31;16.60;99.90
37242;DHT22;23135;51.078;12.108;2022-10-16T07:57:57;16.60;99.90
37242;DHT22;23135;51.078;12.108;2022-10-16T08:00:22;16.70;99.90
37242;DHT22;23135;51.078;12.108;2022-10-16T08:02:48;16.80;99.90
37242;DHT22;23135;51.078;12.108;2022-10-16T08:05:13;17.30;99.90
37242;DHT22;23135;51.078;12.108;2022-10-16T08:07:39;17.70;99.90
37242;DHT22;23135;51.078;12.108;2022-10-16T08:10:05;17.60;99.90
37242;DHT22;23135;51.078;12.108;2022-10-16T08:12:31;17.40;99.90
37242;DHT22;23135;51.078;12.108;2022-10-16T08:14:56;17.30;99.90
37242;DHT22;23135;51.078;12.108;2022-10-16T08:17:22;17.20;99.90
37242;DHT22;23135;51.078;12.108;2022-10-16T08:19:48;17.20;99.90
37242;DHT22;23135;51.078;12.108;2022-10-16T08:22:14;17.20;99.90
37242;DHT22;23135;51.078;12.108;2022-10-16T08:24:39;17.20;99.90
37242;DHT22;23135;51.078;12.108;2022-10-16T08:27:05;17.20;99.90
37242;DHT22;23135;51.078;12.108;2022-10-16T08:29:32;17.20;99.90
37242;DHT22;23135;51.078;12.108;2022-10-16T08:31:57;17.20;99.90
37242;DHT22;23135;51.078;12.108;2022-10-16T08:34:23;17.30;99.90
37242;DHT22;23135;51.078;12.108;2022-10-16T08:36:48;17.40;99.90
37242;DHT22;23135;51.078;12.108;2022-10-16T08:39:15;17.50;99.90
37242;DHT22;23135;51.078;12.108;2022-10-16T08:41:54;17.50;99.90
37242;DHT22;23135;51.078;12.108;2022-10-16T08:50:27;17.70;99.90
37242;DHT22;23135;51.078;12.108;2022-10-16T08:52:55;17.70;99.90
37242;DHT22;23135;51.078;12.108;2022-10-16T08:55:46;17.70;99.90
37242;DHT22;23135;51.078;12.108;2022-10-16T08:58:16;17.80;99.90
37242;DHT22;23135;51.078;12.108;2022-10-16T09:00:43;17.80;99.90
37242;DHT22;23135;51.078;12.108;2022-10-16T09:06:25;18.00;99.90
37242;DHT22;23135;51.078;12.108;2022-10-16T09:11:45;18.10;99.90
37242;DHT22;23135;51.078;12.108;2022-10-16T09:16:56;18.40;99.90
37242;DHT22;23135;51.078;12.108;2022-10-16T09:19:45;18.50;99.90
37242;DHT22;23135;51.078;12.108;2022-10-16T09:22:14;18.50;99.90
37242;DHT22;23135;51.078;12.108;2022-10-16T09:24:40;18.50;99.90
37242;DHT22;23135;51.078;12.108;2022-10-16T09:27:14;18.60;99.90
37242;DHT22;23135;51.078;12.108;2022-10-16T09:29:40;18.70;99.90
37242;DHT22;23135;51.078;12.108;2022-10-16T09:32:19;18.90;99.90
37242;DHT22;23135;51.078;12.108;2022-10-16T09:34:50;19.10;99.90
37242;DHT22;23135;51.078;12.108;2022-10-16T09:37:19;19.00;99.90
37242;DHT22;23135;51.078;12.108;2022-10-16T09:39:50;18.90;99.90
37242;DHT22;23135;51.078;12.108;2022-10-16T09:42:36;18.90;99.90
37242;DHT22;23135;51.078;12.108;2022-10-16T09:45:03;18.90;99.90
37242;DHT22;23135;51.078;12.108;2022-10-16T09:47:30;18.90;99.90
37242;DHT22;23135;51.078;12.108;2022-10-16T09:50:02;19.00;99.90
37242;DHT22;23135;51.078;12.108;2022-10-16T09:52:32;19.00;99.90
37242;DHT22;23135;51.078;12.108;2022-10-16T09:55:01;19.10;99.90
37242;DHT22;23135;51.078;12.108;2022-10-16T09:57:27;19.30;99.90
37242;DHT22;23135;51.078;12.108;2022-10-16T09:59:54;19.50;99.90
37242;DHT22;23135;51.078;12.108;2022-10-16T10:02:34;19.80;99.90
37242;DHT22;23135;51.078;12.108;2022-10-16T10:05:00;19.80;99.90
37242;DHT22;23135;51.078;12.108;2022-10-16T10:07:30;19.90;99.90
37242;DHT22;23135;51.078;12.108;2022-10-16T10:09:59;19.80;99.90
37242;DHT22;23135;51.078;12.108;2022-10-16T10:12:29;19.80;99.90
37242;DHT22;23135;51.078;12.108;2022-10-16T10:15:12;19.70;99.90
37242;DHT22;23135;51.078;12.108;2022-10-16T10:18:14;19.80;99.90
37242;DHT22;23135;51.078;12.108;2022-10-16T10:20:41;19.90;99.90
37242;DHT22;23135;51.078;12.108;2022-10-16T10:23:26;19.90;99.90
37242;DHT22;23135;51.078;12.108;2022-10-16T10:34:41;20.00;99.90
37242;DHT22;23135;51.078;12.108;2022-10-16T10:43:24;20.50;99.90
37242;DHT22;23135;51.078;12.108;2022-10-16T10:45:59;20.50;99.90
37242;DHT22;23135;51.078;12.108;2022-10-16T10:54:20;20.50;99.90
37242;DHT22;23135;51.078;12.108;2022-10-16T10:57:07;20.40;99.90
37242;DHT22;23135;51.078;12.108;2022-10-16T10:59:55;20.50;99.90
37242;DHT22;23135;51.078;12.108;2022-10-16T11:02:41;20.50;99.90
37242;DHT22;23135;51.078;12.108;2022-10-16T11:05:27;20.60;99.90
37242;DHT22;23135;51.078;12.108;2022-10-16T11:07:59;20.70;99.90
37242;DHT22;23135;51.078;12.108;2022-10-16T11:10:46;20.60;99.90
37242;DHT22;23135;51.078;12.108;2022-10-16T11:16:30;20.50;99.90
37242;DHT22;23135;51.078;12.108;2022-10-16T11:21:48;20.50;99.90
37242;DHT22;23135;51.078;12.108;2022-10-16T11:24:40;20.50;99.90
37242;DHT22;23135;51.078;12.108;2022-10-16T11:27:09;20.60;99.90
37242;DHT22;23135;51.078;12.108;2022-10-16T11:29:59;20.60;99.90
37242;DHT22;23135;51.078;12.108;2022-10-16T11:32:40;20.60;99.90
37242;DHT22;23135;51.078;12.108;2022-10-16T11:35:17;20.50;99.90
37242;DHT22;23135;51.078;12.108;2022-10-16T11:37:47;20.50;99.90
37242;DHT22;23135;51.078;12.108;2022-10-16T11:40:32;20.50;99.90
37242;DHT22;23135;51.078;12.108;2022-10-16T11:43:10;20.40;99.90
37242;DHT22;23135;51.078;12.108;2022-10-16T11:45:46;20.50;99.90
37242;DHT22;23135;51.078;12.108;2022-10-16T11:50:59;20.40;99.90
37242;DHT22;23135;51.078;12.108;2022-10-16T11:56:07;20.40;99.90
37242;DHT22;23135;51.078;12.108;2022-10-16T12:01:19;20.40;99.90
37242;DHT22;23135;51.078;12.108;2022-10-16T12:06:57;20.40;99.90
37242;DHT22;23135;51.078;12.108;2022-10-16T12:09:30;20.50;99.90
37242;DHT22;23135;51.078;12.108;2022-10-16T12:11:56;20.50;99.90
37242;DHT22;23135;51.078;12.108;2022-10-16T12:17:22;20.70;99.90
37242;DHT22;23135;51.078;12.108;2022-10-16T12:20:17;20.70;99.90
37242;DHT22;23135;51.078;12.108;2022-10-16T12:22:49;21.00;99.90
37242;DHT22;23135;51.078;12.108;2022-10-16T12:30:28;21.20;99.90
37242;DHT22;23135;51.078;12.108;2022-10-16T12:32:56;21.10;99.90
37242;DHT22;23135;51.078;12.108;2022-10-16T12:35:28;21.00;99.90
37242;DHT22;23135;51.078;12.108;2022-10-16T12:38:07;20.90;99.90
37242;DHT22;23135;51.078;12.108;2022-10-16T12:40:35;21.00;99.90
37242;DHT22;23135;51.078;12.108;2022-10-16T12:45:46;21.00;99.90
37242;DHT22;23135;51.078;12.108;2022-10-16T12:48:21;21.20;99.90
37242;DHT22;23135;51.078;12.108;2022-10-16T12:50:47;21.30;99.90
37242;DHT22;23135;51.078;12.108;2022-10-16T12:53:21;21.30;99.90
37242;DHT22;23135;51.078;12.108;2022-10-16T12:58:45;21.20;99.90
37242;DHT22;23135;51.078;12.108;2022-10-16T13:01:41;21.10;99.90
37242;DHT22;23135;51.078;12.108;2022-10-16T13:09:48;21.40;99.90
37242;DHT22;23135;51.078;12.108;2022-10-16T13:19:06;21.50;99.90
37242;DHT22;23135;51.078;12.108;2022-10-16T13:21:24;21.60;99.90
37242;DHT22;23135;51.078;12.108;2022-10-16T13:29:20;21.20;99.90
37242;DHT22;23135;51.078;12.108;2022-10-16T13:31:46;21.60;99.90
37242;DHT22;23135;51.078;12.108;2022-10-16T13:34:21;21.70;99.90
37242;DHT22;23135;51.078;12.108;2022-10-16T13:36:50;21.90;99.90
37242;DHT22;23135;51.078;12.108;2022-10-16T13:39:28;21.80;99.90
37242;DHT22;23135;51.078;12.108;2022-10-16T13:42:02;21.50;99.90
37242;DHT22;23135;51.078;12.108;2022-10-16T13:44:33;21.40;99.90
37242;DHT22;23135;51.078;12.108;2022-10-16T13:47:00;21.20;99.90
37242;DHT22;23135;51.078;12.108;2022-10-16T13:49:26;21.00;99.90
37242;DHT22;23135;51.078;12.108;2022-10-16T13:51:57;21.00;99.90
37242;DHT22;23135;51.078;12.108;2022-10-16T13:54:24;21.30;99.90
37242;DHT22;23135;51.078;12.108;2022-10-16T13:56:51;21.60;99.90
37242;DHT22;23135;51.078;12.108;2022-10-16T13:59:32;22.10;99.90
37242;DHT22;23135;51.078;12.108;2022-10-16T14:01:58;22.30;99.90
37242;DHT22;23135;51.078;12.108;2022-10-16T14:04:28;21.90;99.90
37242;DHT22;23135;51.078;12.108;2022-10-16T14:06:56;21.70;99.90
37242;DHT22;23135;51.078;12.108;2022-10-16T14:14:28;21.30;99.90
37242;DHT22;23135;51.078;12.108;2022-10-16T14:16:56;21.40;99.90
37242;DHT22;23135;51.078;12.108;2022-10-16T14:19:27;21.60;99.90
37242;DHT22;23135;51.078;12.108;2022-10-16T14:21:53;21.60;99.90
37242;DHT22;23135;51.078;12.108;2022-10-16T14:26:56;21.80;99.90
37242;DHT22;23135;51.078;12.108;2022-10-16T14:29:24;21.80;99.90
37242;DHT22;23135;51.078;12.108;2022-10-16T14:31:56;21.80;99.90
37242;DHT22;23135;51.078;12.108;2022-10-16T14:34:30;21.60;99.90
37242;DHT22;23135;51.078;12.108;2022-10-16T14:37:00;21.50;99.90
37242;DHT22;23135;51.078;12.108;2022-10-16T14:39:27;21.30;99.90
37242;DHT22;23135;51.078;12.108;2022-10-16T14:41:56;21.20;99.90
37242;DHT22;23135;51.078;12.108;2022-10-16T14:44:42;21.10;99.90
37242;DHT22;23135;51.078;12.108;2022-10-16T14:47:13;21.00;99.90
37242;DHT22;23135;51.078;12.108;2022-10-16T14:49:41;20.80;99.90
37242;DHT22;23135;51.078;12.108;2022-10-16T14:52:11;20.60;99.90
37242;DHT22;23135;51.078;12.108;2022-10-16T14:54:37;20.60;99.90
37242;DHT22;23135;51.078;12.108;2022-10-16T14:57:03;20.50;99.90
37242;DHT22;23135;51.078;12.108;2022-10-16T14:59:36;20.40;99.90
37242;DHT22;23135;51.078;12.108;2022-10-16T15:04:46;20.30;99.90
37242;DHT22;23135;51.078;12.108;2022-10-16T15:07:12;20.40;99.90
37242;DHT22;23135;51.078;12.108;2022-10-16T15:09:38;20.40;99.90
37242;DHT22;23135;51.078;12.108;2022-10-16T15:12:03;20.20;99.90
37242;DHT22;23135;51.078;12.108;2022-10-16T15:14:29;20.30;99.90
37242;DHT22;23135;51.078;12.108;2022-10-16T15:16:55;20.20;99.90
37242;DHT22;23135;51.078;12.108;2022-10-16T15:19:20;20.30;99.90
37242;DHT22;23135;51.078;12.108;2022-10-16T15:21:47;20.20;99.90
37242;DHT22;23135;51.078;12.108;2022-10-16T15:24:13;20.00;99.90
37242;DHT22;23135;51.078;12.108;2022-10-16T15:26:39;20.00;99.90
37242;DHT22;23135;51.078;12.108;2022-10-16T15:29:05;19.90;99.90
37242;DHT22;23135;51.078;12.108;2022-10-16T15:31:31;19.70;99.90
37242;DHT22;23135;51.078;12.108;2022-10-16T15:33:57;19.60;99.90
37242;DHT22;23135;51.078;12.108;2022-10-16T15:36:36;19.50;99.90
37242;DHT22;23135;51.078;12.108;2022-10-16T15:39:13;19.40;99.90
37242;DHT22;23135;51.078;12.108;2022-10-16T15:41:39;19.40;99.90
37242;DHT22;23135;51.078;12.108;2022-10-16T15:44:05;19.40;99.90
37242;DHT22;23135;51.078;12.108;2022-10-16T15:46:30;19.20;99.90
37242;DHT22;23135;51.078;12.108;2022-10-16T15:48:58;19.10;99.90
37242;DHT22;23135;51.078;12.108;2022-10-16T15:51:25;19.00;99.90
37242;DHT22;23135;51.078;12.108;2022-10-16T15:53:57;19.00;99.90
37242;DHT22;23135;51.078;12.108;2022-10-16T15:56:24;18.80;99.90
37242;DHT22;23135;51.078;12.108;2022-10-16T15:58:51;18.70;99.90
37242;DHT22;23135;51.078;12.108;2022-10-16T16:01:17;18.60;99.90
37242;DHT22;23135;51.078;12.108;2022-10-16T16:03:43;18.50;99.90
37242;DHT22;23135;51.078;12.108;2022-10-16T16:06:11;18.40;99.90
37242;DHT22;23135;51.078;12.108;2022-10-16T16:08:37;18.30;99.90
37242;DHT22;23135;51.078;12.108;2022-10-16T16:11:08;18.20;99.90
37242;DHT22;23135;51.078;12.108;2022-10-16T16:13:35;18.10;99.90
37242;DHT22;23135;51.078;12.108;2022-10-16T16:16:08;18.10;99.90
37242;DHT22;23135;51.078;12.108;2022-10-16T16:18:34;17.90;99.90
37242;DHT22;23135;51.078;12.108;2022-10-16T16:21:00;17.70;99.90
37242;DHT22;23135;51.078;12.108;2022-10-16T16:23:25;17.60;99.90
37242;DHT22;23135;51.078;12.108;2022-10-16T16:28:35;17.40;99.90
37242;DHT22;23135;51.078;12.108;2022-10-16T16:31:01;17.30;99.90
37242;DHT22;23135;51.078;12.108;2022-10-16T16:33:27;17.20;99.90
37242;DHT22;23135;51.078;12.108;2022-10-16T16:35:57;17.20;99.90
37242;DHT22;23135;51.078;12.108;2022-10-16T16:38:22;17.20;99.90
37242;DHT22;23135;51.078;12.108;2022-10-16T16:40:48;17.10;99.90
37242;DHT22;23135;51.078;12.108;2022-10-16T16:43:14;17.00;99.90
37242;DHT22;23135;51.078;12.108;2022-10-16T16:45:39;16.90;99.90
37242;DHT22;23135;51.078;12.108;2022-10-16T16:48:05;16.70;99.90
37242;DHT22;23135;51.078;12.108;2022-10-16T16:50:35;16.60;99.90
37242;DHT22;23135;51.078;12.108;2022-10-16T16:53:01;16.50;99.90
37242;DHT22;23135;51.078;12.108;2022-10-16T16:55:27;16.40;99.90
37242;DHT22;23135;51.078;12.108;2022-10-16T16:57:52;16.30;99.90
37242;DHT22;23135;51.078;12.108;2022-10-16T17:00:18;16.20;99.90
37242;DHT22;23135;51.078;12.108;2022-10-16T17:02:48;16.20;99.90
37242;DHT22;23135;51.078;12.108;2022-10-16T17:05:14;16.00;99.90
37242;DHT22;23135;51.078;12.108;2022-10-16T17:07:40;16.00;99.90
37242;DHT22;23135;51.078;12.108;2022-10-16T17:10:07;15.90;99.90